sensor_id;sensor_type;location;lat;lon;timestamp;pressure;altitude;pressure_sealevel;temperature;humidity
38038;BME280;23843;51.320;12.340;2023-03-20T05:30:54;100500.25;;;10.83;100.00
38038;BME280;23843;51.320;12.340;2023-03-20T05:33:19;100501.13;;;10.84;100.00
38038;BME280;23843;51.320;12.340;2023-03-20T05:35:45;100504.53;;;10.86;100.00
38038;BME280;23843;51.320;12.340;2023-03-20T05:38:10;100503.84;;;10.82;100.00
38038;BME280;23843;51.320;12.340;2023-03-20T05:40:36;100502.97;;;10.82;100.00
38038;BME280;23843;51.320;12.340;2023-03-20T05:45:30;100503.59;;;10.87;100.00
38038;BME280;23843;51.320;12.340;2023-03-20T05:47:57;100506.00;;;10.91;100.00
38038;BME280;23843;51.320;12.340;2023-03-20T05:50:22;100505.75;;;10.96;100.00
38038;BME280;23843;51.320;12.340;2023-03-20T05:52:48;100507.31;;;11.00;100.00
38038;BME280;23843;51.320;12.340;2023-03-20T05:55:14;100509.72;;;11.05;100.00
38038;BME280;23843;51.320;12.340;2023-03-20T05:57:40;100512.09;;;11.09;100.00
38038;BME280;23843;51.320;12.340;2023-03-20T06:00:06;100514.63;;;11.12;100.00
38038;BME280;23843;51.320;12.340;2023-03-20T06:02:32;100511.00;;;11.13;100.00
38038;BME280;23843;51.320;12.340;2023-03-20T06:04:59;100512.66;;;11.16;100.00
38038;BME280;23843;51.320;12.340;2023-03-20T06:07:24;100515.22;;;11.18;100.00
38038;BME280;23843;51.320;12.340;2023-03-20T06:09:50;100521.31;;;11.20;100.00
38038;BME280;23843;51.320;12.340;2023-03-20T06:12:15;100519.50;;;11.20;100.00
38038;BME280;23843;51.320;12.340;2023-03-20T06:14:41;100522.84;;;11.24;100.00
38038;BME280;23843;51.320;12.340;2023-03-20T06:17:06;100520.28;;;11.22;100.00
38038;BME280;23843;51.320;12.340;2023-03-20T06:19:32;100514.88;;;11.24;100.00
38038;BME280;23843;51.320;12.340;2023-03-20T06:21:59;100525.47;;;11.24;100.00
38038;BME280;23843;51.320;12.340;2023-03-20T06:24:24;100534.38;;;11.23;100.00
38038;BME280;23843;51.320;12.340;2023-03-20T06:26:50;100527.22;;;11.25;100.00
38038;BME280;23843;51.320;12.340;2023-03-20T06:29:15;100533.38;;;11.25;100.00
38038;BME280;23843;51.320;12.340;2023-03-20T06:31:42;100540.47;;;11.25;100.00
38038;BME280;23843;51.320;12.340;2023-03-20T06:34:08;100538.84;;;11.22;100.00
38038;BME280;23843;51.320;12.340;2023-03-20T06:36:33;100541.31;;;11.25;100.00
38038;BME280;23843;51.320;12.340;2023-03-20T06:39:00;100536.78;;;11.27;100.00
38038;BME280;23843;51.320;12.340;2023-03-20T06:41:26;100534.22;;;11.26;100.00
38038;BME280;23843;51.320;12.340;2023-03-20T06:43:51;100548.50;;;11.23;100.00
38038;BME280;23843;51.320;12.340;2023-03-20T06:46:19;100549.53;;;11.21;100.00
38038;BME280;23843;51.320;12.340;2023-03-20T06:48:44;100546.03;;;11.20;100.00
38038;BME280;23843;51.320;12.340;2023-03-20T06:51:10;100552.78;;;11.26;100.00
38038;BME280;23843;51.320;12.340;2023-03-20T06:53:35;100553.56;;;11.28;100.00
38038;BME280;23843;51.320;12.340;2023-03-20T06:56:03;100552.47;;;11.32;100.00
38038;BME280;23843;51.320;12.340;2023-03-20T06:58:29;100553.31;;;11.32;100.00
38038;BME280;23843;51.320;12.340;2023-03-20T07:00:54;100557.53;;;11.37;100.00
38038;BME280;23843;51.320;12.340;2023-03-20T07:03:20;100553.06;;;11.37;100.00
38038;BME280;23843;51.320;12.340;2023-03-20T07:05:46;100561.69;;;11.41;100.00
38038;BME280;23843;51.320;12.340;2023-03-20T07:08:11;100559.66;;;11.46;100.00
38038;BME280;23843;51.320;12.340;2023-03-20T07:10:37;100571.03;;;11.48;100.00
38038;BME280;23843;51.320;12.340;2023-03-20T07:13:04;100569.00;;;11.53;100.00
38038;BME280;23843;51.320;12.340;2023-03-20T07:15:29;100572.41;;;11.55;100.00
38038;BME280;23843;51.320;12.340;2023-03-20T07:17:55;100574.22;;;11.54;100.00
38038;BME280;23843;51.320;12.340;2023-03-20T07:20:20;100575.00;;;11.56;100.00
38038;BME280;23843;51.320;12.340;2023-03-20T07:22:46;100574.81;;;11.60;100.00
38038;BME280;23843;51.320;12.340;2023-03-20T07:25:12;100581.09;;;11.59;100.00
38038;BME280;23843;51.320;12.340;2023-03-20T07:27:38;100584.50;;;11.61;100.00
38038;BME280;23843;51.320;12.340;2023-03-20T07:30:06;100591.47;;;11.63;100.00
38038;BME280;23843;51.320;12.340;2023-03-20T07:32:32;100588.63;;;11.66;100.00
38038;BME280;23843;51.320;12.340;2023-03-20T07:34:57;100583.06;;;11.71;100.00
38038;BME280;23843;51.320;12.340;2023-03-20T07:37:23;100585.63;;;11.72;100.00
38038;BME280;23843;51.320;12.340;2023-03-20T07:39:48;100591.63;;;11.76;100.00
38038;BME280;23843;51.320;12.340;2023-03-20T07:42:14;100583.66;;;11.76;100.00
38038;BME280;23843;51.320;12.340;2023-03-20T07:44:39;100579.97;;;11.78;100.00
38038;BME280;23843;51.320;12.340;2023-03-20T07:47:07;100581.44;;;11.84;100.00
38038;BME280;23843;51.320;12.340;2023-03-20T07:49:33;100583.59;;;11.93;100.00
38038;BME280;23843;51.320;12.340;2023-03-20T07:51:59;100576.84;;;12.04;100.00
38038;BME280;23843;51.320;12.340;2023-03-20T07:54:24;100579.22;;;12.08;100.00
38038;BME280;23843;51.320;12.340;2023-03-20T07:56:50;100579.06;;;12.11;100.00
38038;BME280;23843;51.320;12.340;2023-03-20T07:59:16;100576.25;;;12.14;100.00
38038;BME280;23843;51.320;12.340;2023-03-20T08:01:41;100585.16;;;11.97;100.00
38038;BME280;23843;51.320;12.340;2023-03-20T08:04:08;100579.56;;;12.02;100.00
38038;BME280;23843;51.320;12.340;2023-03-20T08:06:34;100577.44;;;12.09;100.00
38038;BME280;23843;51.320;12.340;2023-03-20T08:08:59;100574.31;;;12.16;100.00
38038;BME280;23843;51.320;12.340;2023-03-20T08:11:25;100573.03;;;12.24;100.00
38038;BME280;23843;51.320;12.340;2023-03-20T08:13:51;100567.28;;;12.31;100.00
38038;BME280;23843;51.320;12.340;2023-03-20T08:16:16;100574.13;;;12.35;100.00
38038;BME280;23843;51.320;12.340;2023-03-20T08:18:42;100576.44;;;12.41;100.00
38038;BME280;23843;51.320;12.340;2023-03-20T08:21:09;100581.19;;;12.36;100.00
38038;BME280;23843;51.320;12.340;2023-03-20T08:23:35;100580.13;;;12.39;100.00
38038;BME280;23843;51.320;12.340;2023-03-20T08:26:00;100577.88;;;12.47;100.00
38038;BME280;23843;51.320;12.340;2023-03-20T08:28:26;100590.72;;;12.55;100.00
38038;BME280;23843;51.320;12.340;2023-03-20T08:30:51;100583.31;;;12.60;100.00
38038;BME280;23843;51.320;12.340;2023-03-20T08:33:18;100582.13;;;12.66;100.00
38038;BME280;23843;51.320;12.340;2023-03-20T08:35:53;100575.78;;;12.68;100.00
38038;BME280;23843;51.320;12.340;2023-03-20T08:38:20;100571.63;;;12.78;100.00
38038;BME280;23843;51.320;12.340;2023-03-20T08:40:46;100569.88;;;12.77;100.00
38038;BME280;23843;51.320;12.340;2023-03-20T08:43:11;100581.22;;;12.81;100.00
38038;BME280;23843;51.320;12.340;2023-03-20T08:45:37;100584.16;;;12.91;100.00
38038;BME280;23843;51.320;12.340;2023-03-20T08:48:02;100579.72;;;13.05;100.00
38038;BME280;23843;51.320;12.340;2023-03-20T08:50:28;100581.81;;;13.15;100.00
38038;BME280;23843;51.320;12.340;2023-03-20T08:52:53;100586.66;;;13.22;100.00
38038;BME280;23843;51.320;12.340;2023-03-20T08:55:20;100596.63;;;13.19;100.00
38038;BME280;23843;51.320;12.340;2023-03-20T08:57:46;100595.97;;;13.15;100.00
38038;BME280;23843;51.320;12.340;2023-03-20T09:00:13;100606.81;;;13.12;100.00
38038;BME280;23843;51.320;12.340;2023-03-20T09:02:40;100609.06;;;13.04;100.00
38038;BME280;23843;51.320;12.340;2023-03-20T09:05:06;100614.19;;;12.93;100.00
38038;BME280;23843;51.320;12.340;2023-03-20T09:07:32;100609.03;;;12.90;100.00
38038;BME280;23843;51.320;12.340;2023-03-20T09:09:57;100617.38;;;12.83;100.00
38038;BME280;23843;51.320;12.340;2023-03-20T09:12:24;100620.13;;;12.82;100.00
38038;BME280;23843;51.320;12.340;2023-03-20T09:14:50;100617.19;;;12.87;100.00
38038;BME280;23843;51.320;12.340;2023-03-20T09:17:15;100619.09;;;12.84;100.00
38038;BME280;23843;51.320;12.340;2023-03-20T09:19:41;100615.19;;;12.76;100.00
38038;BME280;23843;51.320;12.340;2023-03-20T09:22:06;100621.03;;;12.67;100.00
38038;BME280;23843;51.320;12.340;2023-03-20T09:24:32;100629.47;;;12.59;100.00
38038;BME280;23843;51.320;12.340;2023-03-20T09:26:57;100618.25;;;12.54;100.00
38038;BME280;23843;51.320;12.340;2023-03-20T09:29:24;100630.00;;;12.50;100.00
38038;BME280;23843;51.320;12.340;2023-03-20T09:31:51;100624.44;;;12.38;100.00
38038;BME280;23843;51.320;12.340;2023-03-20T09:34:17;100635.22;;;12.35;100.00
38038;BME280;23843;51.320;12.340;2023-03-20T09:36:42;100636.19;;;12.34;100.00
38038;BME280;23843;51.320;12.340;2023-03-20T09:39:08;100634.47;;;12.33;100.00
38038;BME280;23843;51.320;12.340;2023-03-20T09:41:33;100644.41;;;12.30;100.00
38038;BME280;23843;51.320;12.340;2023-03-20T09:44:13;100638.41;;;12.26;100.00
38038;BME280;23843;51.320;12.340;2023-03-20T09:47:02;100638.50;;;12.25;100.00
38038;BME280;23843;51.320;12.340;2023-03-20T09:49:38;100643.06;;;12.23;100.00
38038;BME280;23843;51.320;12.340;2023-03-20T09:52:15;100639.38;;;12.25;100.00
38038;BME280;23843;51.320;12.340;2023-03-20T09:54:44;100639.19;;;12.28;100.00
38038;BME280;23843;51.320;12.340;2023-03-20T09:57:21;100648.78;;;12.31;100.00
38038;BME280;23843;51.320;12.340;2023-03-20T09:59:49;100649.63;;;12.31;100.00
38038;BME280;23843;51.320;12.340;2023-03-20T10:02:28;100646.03;;;12.32;100.00
38038;BME280;23843;51.320;12.340;2023-03-20T10:04:58;100648.50;;;12.35;100.00
38038;BME280;23843;51.320;12.340;2023-03-20T10:07:24;100639.44;;;12.39;100.00
38038;BME280;23843;51.320;12.340;2023-03-20T10:09:50;100640.38;;;12.38;100.00
38038;BME280;23843;51.320;12.340;2023-03-20T10:12:24;100634.31;;;12.36;100.00
38038;BME280;23843;51.320;12.340;2023-03-20T10:14:57;100629.00;;;12.36;100.00
38038;BME280;23843;51.320;12.340;2023-03-20T10:17:39;100639.44;;;12.39;100.00
38038;BME280;23843;51.320;12.340;2023-03-20T10:20:12;100638.16;;;12.47;100.00
38038;BME280;23843;51.320;12.340;2023-03-20T10:22:41;100632.06;;;12.45;100.00
38038;BME280;23843;51.320;12.340;2023-03-20T10:25:25;100623.31;;;12.42;100.00
38038;BME280;23843;51.320;12.340;2023-03-20T10:27:56;100622.09;;;12.48;100.00
38038;BME280;23843;51.320;12.340;2023-03-20T10:30:36;100624.69;;;12.50;100.00
38038;BME280;23843;51.320;12.340;2023-03-20T10:33:17;100619.03;;;12.56;100.00
38038;BME280;23843;51.320;12.340;2023-03-20T10:35:51;100629.66;;;12.56;100.00
38038;BME280;23843;51.320;12.340;2023-03-20T10:38:27;100620.72;;;12.57;100.00
38038;BME280;23843;51.320;12.340;2023-03-20T10:40:57;100623.44;;;12.55;100.00
38038;BME280;23843;51.320;12.340;2023-03-20T10:43:27;100634.09;;;12.55;100.00
38038;BME280;23843;51.320;12.340;2023-03-20T10:45:58;100628.69;;;12.57;100.00
38038;BME280;23843;51.320;12.340;2023-03-20T10:48:32;100626.03;;;12.57;100.00
38038;BME280;23843;51.320;12.340;2023-03-20T10:50:59;100616.25;;;12.57;100.00
38038;BME280;23843;51.320;12.340;2023-03-20T10:53:29;100612.56;;;12.60;100.00
38038;BME280;23843;51.320;12.340;2023-03-20T10:55:58;100612.75;;;12.57;100.00
38038;BME280;23843;51.320;12.340;2023-03-20T10:58:27;100620.72;;;12.57;100.00
38038;BME280;23843;51.320;12.340;2023-03-20T11:00:54;100618.25;;;12.54;100.00
38038;BME280;23843;51.320;12.340;2023-03-20T11:03:22;100618.41;;;12.51;100.00
38038;BME280;23843;51.320;12.340;2023-03-20T11:05:52;100617.66;;;12.49;100.00
38038;BME280;23843;51.320;12.340;2023-03-20T11:08:22;100620.22;;;12.50;100.00
38038;BME280;23843;51.320;12.340;2023-03-20T11:10:57;100622.88;;;12.50;100.00
38038;BME280;23843;51.320;12.340;2023-03-20T11:13:25;100624.41;;;12.54;100.00
38038;BME280;23843;51.320;12.340;2023-03-20T11:15:51;100619.03;;;12.56;100.00
38038;BME280;23843;51.320;12.340;2023-03-20T11:18:17;100612.81;;;12.55;100.00
38038;BME280;23843;51.320;12.340;2023-03-20T11:20:47;100611.03;;;12.56;100.00
38038;BME280;23843;51.320;12.340;2023-03-20T11:23:17;100612.56;;;12.60;100.00
38038;BME280;23843;51.320;12.340;2023-03-20T11:25:50;100618.38;;;12.67;100.00
38038;BME280;23843;51.320;12.340;2023-03-20T11:28:25;100615.53;;;12.70;100.00
38038;BME280;23843;51.320;12.340;2023-03-20T11:30:58;100616.22;;;12.73;100.00
38038;BME280;23843;51.320;12.340;2023-03-20T11:33:25;100618.13;;;12.71;100.00
38038;BME280;23843;51.320;12.340;2023-03-20T11:35:54;100619.81;;;12.72;100.00
38038;BME280;23843;51.320;12.340;2023-03-20T11:38:21;100620.50;;;12.76;100.00
38038;BME280;23843;51.320;12.340;2023-03-20T11:40:48;100613.78;;;12.84;100.00
38038;BME280;23843;51.320;12.340;2023-03-20T11:43:18;100607.91;;;12.94;100.00
38038;BME280;23843;51.320;12.340;2023-03-20T11:45:45;100606.78;;;12.98;100.00
38038;BME280;23843;51.320;12.340;2023-03-20T11:48:17;100607.84;;;13.10;100.00
38038;BME280;23843;51.320;12.340;2023-03-20T11:50:46;100602.63;;;13.22;100.00
38038;BME280;23843;51.320;12.340;2023-03-20T11:53:23;100601.16;;;13.33;100.00
38038;BME280;23843;51.320;12.340;2023-03-20T11:56:02;100598.00;;;13.40;100.00
38038;BME280;23843;51.320;12.340;2023-03-20T11:58:29;100594.50;;;13.40;100.00
38038;BME280;23843;51.320;12.340;2023-03-20T12:00:55;100596.69;;;13.47;100.00
38038;BME280;23843;51.320;12.340;2023-03-20T12:03:40;100589.47;;;13.49;100.00
38038;BME280;23843;51.320;12.340;2023-03-20T12:06:08;100596.47;;;13.51;100.00
38038;BME280;23843;51.320;12.340;2023-03-20T12:08:40;100589.38;;;13.51;100.00
38038;BME280;23843;51.320;12.340;2023-03-20T12:11:22;100586.50;;;13.54;100.00
38038;BME280;23843;51.320;12.340;2023-03-20T12:13:49;100574.34;;;13.50;100.00
38038;BME280;23843;51.320;12.340;2023-03-20T12:16:17;100579.94;;;13.45;100.00
38038;BME280;23843;51.320;12.340;2023-03-20T12:18:47;100581.28;;;13.38;100.00
38038;BME280;23843;51.320;12.340;2023-03-20T12:21:17;100575.31;;;13.35;100.00
38038;BME280;23843;51.320;12.340;2023-03-20T12:23:48;100577.47;;;13.28;100.00
38038;BME280;23843;51.320;12.340;2023-03-20T12:26:19;100572.41;;;13.23;100.00
38038;BME280;23843;51.320;12.340;2023-03-20T12:28:50;100569.75;;;13.23;100.00
38038;BME280;23843;51.320;12.340;2023-03-20T12:31:23;100567.09;;;13.23;100.00
38038;BME280;23843;51.320;12.340;2023-03-20T12:33:53;100565.28;;;13.24;100.00
38038;BME280;23843;51.320;12.340;2023-03-20T12:36:26;100562.63;;;13.24;100.00
38038;BME280;23843;51.320;12.340;2023-03-20T12:38:55;100564.34;;;13.25;100.00
38038;BME280;23843;51.320;12.340;2023-03-20T12:41:24;100564.19;;;13.28;100.00
38038;BME280;23843;51.320;12.340;2023-03-20T12:44:07;100565.72;;;13.32;100.00
38038;BME280;23843;51.320;12.340;2023-03-20T12:46:43;100556.13;;;13.30;100.00
38038;BME280;23843;51.320;12.340;2023-03-20T12:49:18;100557.81;;;13.31;100.00
38038;BME280;23843;51.320;12.340;2023-03-20T12:51:55;100558.19;;;13.24;100.00
38038;BME280;23843;51.320;12.340;2023-03-20T12:54:36;100546.00;;;13.20;100.00
38038;BME280;23843;51.320;12.340;2023-03-20T12:57:14;100551.50;;;13.03;100.00
38038;BME280;23843;51.320;12.340;2023-03-20T13:00:04;100545.22;;;13.04;100.00
38038;BME280;23843;51.320;12.340;2023-03-20T13:02:43;100538.78;;;13.08;100.00
38038;BME280;23843;51.320;12.340;2023-03-20T13:05:21;100542.97;;;13.12;100.00
38038;BME280;23843;51.320;12.340;2023-03-20T13:08:25;100535.00;;;13.12;100.00
38038;BME280;23843;51.320;12.340;2023-03-20T13:10:56;100540.31;;;13.12;100.00
38038;BME280;23843;51.320;12.340;2023-03-20T13:13:30;100539.56;;;13.10;100.00
38038;BME280;23843;51.320;12.340;2023-03-20T13:16:05;100539.34;;;13.13;100.00
38038;BME280;23843;51.320;12.340;2023-03-20T13:18:43;100537.94;;;13.22;100.00
38038;BME280;23843;51.320;12.340;2023-03-20T13:21:15;100531.97;;;13.33;100.00
38038;BME280;23843;51.320;12.340;2023-03-20T13:23:50;100530.44;;;13.43;100.00
38038;BME280;23843;51.320;12.340;2023-03-20T13:26:27;100522.34;;;13.59;100.00
38038;BME280;23843;51.320;12.340;2023-03-20T13:29:01;100518.97;;;13.69;100.00
38038;BME280;23843;51.320;12.340;2023-03-20T13:31:38;100510.59;;;13.76;100.00
38038;BME280;23843;51.320;12.340;2023-03-20T13:34:17;100505.97;;;13.92;100.00
38038;BME280;23843;51.320;12.340;2023-03-20T13:36:52;100507.97;;;14.16;100.00
38038;BME280;23843;51.320;12.340;2023-03-20T13:39:21;100503.72;;;14.26;100.00
38038;BME280;23843;51.320;12.340;2023-03-20T13:41:51;100503.66;;;14.40;100.00
38038;BME280;23843;51.320;12.340;2023-03-20T13:44:18;100499.31;;;14.39;100.00
38038;BME280;23843;51.320;12.340;2023-03-20T13:46:46;100502.13;;;14.23;100.00
38038;BME280;23843;51.320;12.340;2023-03-20T13:49:17;100503.19;;;14.21;100.00
38038;BME280;23843;51.320;12.340;2023-03-20T13:51:47;100507.16;;;14.28;100.00
38038;BME280;23843;51.320;12.340;2023-03-20T13:54:28;100501.44;;;14.34;100.00
38038;BME280;23843;51.320;12.340;2023-03-20T13:57:07;100490.66;;;14.35;100.00
38038;BME280;23843;51.320;12.340;2023-03-20T13:59:51;100494.81;;;14.27;100.00
38038;BME280;23843;51.320;12.340;2023-03-20T14:02:26;100489.88;;;14.21;100.00
38038;BME280;23843;51.320;12.340;2023-03-20T14:05:00;100489.66;;;14.24;100.00
38038;BME280;23843;51.320;12.340;2023-03-20T14:07:29;100485.06;;;14.26;100.00
38038;BME280;23843;51.320;12.340;2023-03-20T14:09:55;100482.84;;;14.20;100.00
38038;BME280;23843;51.320;12.340;2023-03-20T14:12:24;100476.84;;;14.16;100.00
38038;BME280;23843;51.320;12.340;2023-03-20T14:14:53;100480.06;;;14.21;100.00
38038;BME280;23843;51.320;12.340;2023-03-20T14:17:20;100470.28;;;14.22;100.00
38038;BME280;23843;51.320;12.340;2023-03-20T14:19:49;100464.31;;;14.31;100.00
38038;BME280;23843;51.320;12.340;2023-03-20T14:22:17;100470.69;;;14.28;100.00
38038;BME280;23843;51.320;12.340;2023-03-20T14:24:52;100454.00;;;14.39;100.00
38038;BME280;23843;51.320;12.340;2023-03-20T14:27:20;100460.16;;;14.52;100.00
38038;BME280;23843;51.320;12.340;2023-03-20T14:29:47;100451.78;;;14.59;100.00
38038;BME280;23843;51.320;12.340;2023-03-20T14:32:30;100454.03;;;14.65;100.00
38038;BME280;23843;51.320;12.340;2023-03-20T14:34:59;100454.78;;;14.67;100.00
38038;BME280;23843;51.320;12.340;2023-03-20T14:37:34;100455.22;;;14.73;100.00
38038;BME280;23843;51.320;12.340;2023-03-20T14:40:04;100450.63;;;14.75;100.00
38038;BME280;23843;51.320;12.340;2023-03-20T14:42:41;100449.03;;;14.73;100.00
38038;BME280;23843;51.320;12.340;2023-03-20T14:45:26;100449.22;;;14.70;100.00
38038;BME280;23843;51.320;12.340;2023-03-20T14:47:58;100446.03;;;14.65;100.00
38038;BME280;23843;51.320;12.340;2023-03-20T14:50:30;100449.88;;;14.61;100.00
38038;BME280;23843;51.320;12.340;2023-03-20T14:53:13;100452.41;;;14.49;100.00
38038;BME280;23843;51.320;12.340;2023-03-20T14:55:49;100446.84;;;14.52;100.00
38038;BME280;23843;51.320;12.340;2023-03-20T14:58:46;100444.50;;;14.48;100.00
38038;BME280;23843;51.320;12.340;2023-03-20T15:01:17;100452.31;;;14.51;100.00
38038;BME280;23843;51.320;12.340;2023-03-20T15:03:50;100442.19;;;14.56;100.00
38038;BME280;23843;51.320;12.340;2023-03-20T15:06:18;100436.97;;;14.54;100.00
38038;BME280;23843;51.320;12.340;2023-03-20T15:08:49;100442.34;;;14.53;100.00
38038;BME280;23843;51.320;12.340;2023-03-20T15:11:16;100443.66;;;14.47;100.00
38038;BME280;23843;51.320;12.340;2023-03-20T15:13:43;100442.91;;;14.45;100.00
38038;BME280;23843;51.320;12.340;2023-03-20T15:16:11;100442.03;;;14.45;100.00
38038;BME280;23843;51.320;12.340;2023-03-20T15:18:39;100433.84;;;14.35;100.00
38038;BME280;23843;51.320;12.340;2023-03-20T15:21:11;100435.44;;;14.38;100.00
38038;BME280;23843;51.320;12.340;2023-03-20T15:23:40;100431.16;;;14.35;100.00
38038;BME280;23843;51.320;12.340;2023-03-20T15:26:07;100427.75;;;14.33;100.00
38038;BME280;23843;51.320;12.340;2023-03-20T15:28:33;100427.66;;;14.34;100.00
38038;BME280;23843;51.320;12.340;2023-03-20T15:30:59;100427.75;;;14.33;100.00
38038;BME280;23843;51.320;12.340;2023-03-20T15:33:27;100427.13;;;14.29;100.00
38038;BME280;23843;51.320;12.340;2023-03-20T15:35:54;100431.16;;;14.22;100.00
38038;BME280;23843;51.320;12.340;2023-03-20T15:38:20;100431.88;;;14.11;100.00
38038;BME280;23843;51.320;12.340;2023-03-20T15:40:46;100435.56;;;13.96;100.00
38038;BME280;23843;51.320;12.340;2023-03-20T15:43:16;100421.38;;;13.83;100.00
38038;BME280;23843;51.320;12.340;2023-03-20T15:45:43;100422.00;;;13.74;100.00
38038;BME280;23843;51.320;12.340;2023-03-20T15:48:12;100429.44;;;13.68;100.00
38038;BME280;23843;51.320;12.340;2023-03-20T15:50:39;100423.09;;;13.57;100.00
38038;BME280;23843;51.320;12.340;2023-03-20T15:53:07;100424.19;;;13.40;100.00
38038;BME280;23843;51.320;12.340;2023-03-20T15:55:36;100425.25;;;13.37;100.00
38038;BME280;23843;51.320;12.340;2023-03-20T15:58:02;100433.88;;;13.41;100.00
38038;BME280;23843;51.320;12.340;2023-03-20T16:00:30;100436.75;;;13.38;100.00
38038;BME280;23843;51.320;12.340;2023-03-20T16:02:58;100436.81;;;13.36;100.00
38038;BME280;23843;51.320;12.340;2023-03-20T16:05:26;100436.38;;;13.30;100.00
38038;BME280;23843;51.320;12.340;2023-03-20T16:07:52;100437.69;;;13.22;100.00
38038;BME280;23843;51.320;12.340;2023-03-20T16:10:24;100440.44;;;13.21;100.00
38038;BME280;23843;51.320;12.340;2023-03-20T16:12:52;100438.06;;;13.16;100.00
38038;BME280;23843;51.320;12.340;2023-03-20T16:15:18;100441.69;;;13.15;100.00
38038;BME280;23843;51.320;12.340;2023-03-20T16:17:44;100443.59;;;13.13;100.00
38038;BME280;23843;51.320;12.340;2023-03-20T16:20:13;100434.78;;;13.13;100.00
38038;BME280;23843;51.320;12.340;2023-03-20T16:22:40;100435.44;;;13.02;100.00
38038;BME280;23843;51.320;12.340;2023-03-20T16:25:11;100435.06;;;12.94;100.00
38038;BME280;23843;51.320;12.340;2023-03-20T16:27:40;100429.38;;;12.85;100.00
38038;BME280;23843;51.320;12.340;2023-03-20T16:30:08;100436.03;;;12.78;100.00
38038;BME280;23843;51.320;12.340;2023-03-20T16:32:39;100434.22;;;12.79;100.00
38038;BME280;23843;51.320;12.340;2023-03-20T16:35:14;100428.06;;;12.78;100.00
38038;BME280;23843;51.320;12.340;2023-03-20T16:37:42;100429.75;;;12.79;100.00
38038;BME280;23843;51.320;12.340;2023-03-20T16:40:14;100430.78;;;12.77;100.00
38038;BME280;23843;51.320;12.340;2023-03-20T16:42:42;100435.47;;;12.73;100.00
38038;BME280;23843;51.320;12.340;2023-03-20T16:45:16;100430.16;;;12.73;100.00
38038;BME280;23843;51.320;12.340;2023-03-20T16:47:47;100433.56;;;12.75;100.00
38038;BME280;23843;51.320;12.340;2023-03-20T16:50:18;100437.06;;;12.76;100.00
38038;BME280;23843;51.320;12.340;2023-03-20T16:52:47;100431.84;;;12.74;100.00
38038;BME280;23843;51.320;12.340;2023-03-20T16:55:16;100427.84;;;12.67;100.00
38038;BME280;23843;51.320;12.340;2023-03-20T16:57:48;100432.59;;;12.62;100.00
38038;BME280;23843;51.320;12.340;2023-03-20T17:00:20;100435.47;;;12.59;100.00
38038;BME280;23843;51.320;12.340;2023-03-20T17:02:49;100434.50;;;12.60;100.00
38038;BME280;23843;51.320;12.340;2023-03-20T17:05:18;100433.72;;;12.58;100.00
38038;BME280;23843;51.320;12.340;2023-03-20T17:07:48;100434.59;;;12.58;100.00
38038;BME280;23843;51.320;12.340;2023-03-20T17:10:18;100435.72;;;12.54;100.00
38038;BME280;23843;51.320;12.340;2023-03-20T17:12:46;100429.72;;;12.51;100.00
38038;BME280;23843;51.320;12.340;2023-03-20T17:15:13;100434.59;;;12.44;100.00
38038;BME280;23843;51.320;12.340;2023-03-20T17:17:39;100435.63;;;12.41;100.00
38038;BME280;23843;51.320;12.340;2023-03-20T17:20:05;100441.31;;;12.35;100.00
38038;BME280;23843;51.320;12.340;2023-03-20T17:22:31;100450.22;;;12.34;100.00
38038;BME280;23843;51.320;12.340;2023-03-20T17:24:56;100447.38;;;12.37;100.00
38038;BME280;23843;51.320;12.340;2023-03-20T17:27:22;100446.63;;;12.35;100.00
38038;BME280;23843;51.320;12.340;2023-03-20T17:29:49;100448.50;;;12.33;100.00
38038;BME280;23843;51.320;12.340;2023-03-20T17:32:16;100446.13;;;12.29;100.00
38038;BME280;23843;51.320;12.340;2023-03-20T17:34:42;100446.56;;;12.21;100.00
38038;BME280;23843;51.320;12.340;2023-03-20T17:37:10;100449.63;;;12.15;100.00
38038;BME280;23843;51.320;12.340;2023-03-20T17:39:37;100456.88;;;12.11;100.00
38038;BME280;23843;51.320;12.340;2023-03-20T17:42:04;100461.28;;;12.12;100.00
38038;BME280;23843;51.320;12.340;2023-03-20T17:44:30;100463.16;;;12.10;100.00
38038;BME280;23843;51.320;12.340;2023-03-20T17:46:57;100466.09;;;12.06;100.00
38038;BME280;23843;51.320;12.340;2023-03-20T17:49:22;100466.44;;;11.99;100.00
38038;BME280;23843;51.320;12.340;2023-03-20T17:51:48;100466.59;;;11.96;100.00
38038;BME280;23843;51.320;12.340;2023-03-20T17:54:13;100470.22;;;11.95;100.00
38038;BME280;23843;51.320;12.340;2023-03-20T17:56:39;100468.69;;;11.91;100.00
38038;BME280;23843;51.320;12.340;2023-03-20T17:59:04;100467.84;;;11.91;100.00
38038;BME280;23843;51.320;12.340;2023-03-20T18:01:30;100473.13;;;11.91;100.00
38038;BME280;23843;51.320;12.340;2023-03-20T18:03:57;100474.94;;;11.90;100.00
38038;BME280;23843;51.320;12.340;2023-03-20T18:06:24;100468.69;;;11.91;100.00
38038;BME280;23843;51.320;12.340;2023-03-20T18:08:50;100472.28;;;11.90;100.00
38038;BME280;23843;51.320;12.340;2023-03-20T18:11:15;100481.00;;;11.92;100.00
38038;BME280;23843;51.320;12.340;2023-03-20T18:13:41;100473.81;;;11.94;100.00